createdAt,value
2019-05-02T00:08:09.550Z,14.15
2019-05-02T00:13:39.623Z,14.43
2019-05-02T00:24:41.488Z,17.82
2019-05-02T00:47:06.115Z,18.37
2019-05-02T00:58:16.439Z,21.87
2019-05-02T01:01:16.689Z,21.45
2019-05-02T01:04:00.067Z,21.50
2019-05-02T01:06:44.626Z,21.02
2019-05-02T01:09:23.627Z,20.85
2019-05-02T01:12:08.302Z,19.85
2019-05-02T01:14:46.910Z,19.20
2019-05-02T01:17:30.884Z,21.37
2019-05-02T01:20:10.519Z,18.75
2019-05-02T01:22:52.320Z,18.73
2019-05-02T01:25:33.476Z,18.75
2019-05-02T01:28:19.646Z,18.02
2019-05-02T01:34:18.081Z,18.02
2019-05-02T01:37:11.901Z,19.05
2019-05-02T01:39:49.911Z,20.55
2019-05-02T01:42:39.613Z,20.43
2019-05-02T01:45:13.324Z,20.88
2019-05-02T01:47:54.129Z,21.87
2019-05-02T01:50:34.888Z,20.95
2019-05-02T01:53:15.527Z,20.77
2019-05-02T01:55:57.579Z,20.23
2019-05-02T01:58:38.915Z,20.20
2019-05-02T02:01:21.396Z,20.70
2019-05-02T02:04:01.863Z,21.17
2019-05-02T02:06:43.408Z,23.12
2019-05-02T02:09:25.590Z,23.60
2019-05-02T02:12:09.917Z,25.10
2019-05-02T02:14:53.481Z,26.40
2019-05-02T02:17:31.199Z,23.18
2019-05-02T02:20:15.571Z,24.30
2019-05-02T02:25:59.663Z,26.48
2019-05-02T02:28:40.319Z,28.35
2019-05-02T02:31:20.819Z,31.95
2019-05-02T02:34:01.244Z,30.40
2019-05-02T02:36:41.931Z,29.30
2019-05-02T02:39:22.652Z,31.57
2019-05-02T02:42:03.428Z,30.43
2019-05-02T02:47:52.986Z,31.07
2019-05-02T02:50:36.876Z,31.50
2019-05-02T02:53:24.159Z,32.50
2019-05-02T02:56:03.431Z,35.35
2019-05-02T02:58:46.058Z,36.60
2019-05-02T03:01:29.096Z,35.08
2019-05-02T03:04:09.924Z,38.45
2019-05-02T03:06:50.963Z,36.73
2019-05-02T03:09:31.895Z,37.45
2019-05-02T03:15:28.085Z,35.80
2019-05-02T03:18:05.479Z,37.63
2019-05-02T03:20:46.220Z,38.83
2019-05-02T03:23:27.701Z,37.38
2019-05-02T03:26:15.152Z,38.80
2019-05-02T03:28:57.554Z,38.50
2019-05-02T03:31:33.308Z,42.23
2019-05-02T03:34:14.565Z,38.63
2019-05-02T03:37:03.005Z,37.83
2019-05-02T03:39:37.287Z,42.40
2019-05-02T03:42:18.411Z,39.45
2019-05-02T03:45:04.376Z,39.83
2019-05-02T03:47:43.478Z,41.15
2019-05-02T03:50:32.737Z,42.98
2019-05-02T03:55:50.616Z,47.40
2019-05-02T04:04:00.036Z,58.65
2019-05-02T04:06:43.724Z,61.00
2019-05-02T04:12:18.616Z,59.23
2019-05-02T04:14:59.325Z,59.80
2019-05-02T04:34:17.629Z,60.20
2019-05-02T04:37:01.080Z,56.45
2019-05-02T04:39:39.879Z,54.53
2019-05-02T04:42:23.194Z,54.60
2019-05-02T04:45:20.633Z,56.88
2019-05-02T04:47:54.870Z,56.28
2019-05-02T04:50:29.421Z,56.63
2019-05-02T04:53:10.296Z,54.85
2019-05-02T04:56:01.556Z,55.58
2019-05-02T04:58:37.233Z,55.67
2019-05-02T05:01:15.947Z,55.20
2019-05-02T05:04:02.207Z,55.75
2019-05-02T05:06:40.842Z,56.45
2019-05-02T05:09:22.319Z,54.88
2019-05-02T05:12:02.852Z,53.40
2019-05-02T05:14:43.467Z,55.55
2019-05-02T05:17:25.082Z,55.43
2019-05-02T05:20:13.724Z,56.77
2019-05-02T05:22:49.606Z,58.58
2019-05-02T05:25:37.915Z,55.70
2019-05-02T05:28:20.067Z,56.98
2019-05-02T05:31:01.290Z,57.25
2019-05-02T05:33:42.055Z,56.95
2019-05-02T05:36:28.964Z,58.05
2019-05-02T05:39:08.374Z,56.18
2019-05-02T05:41:52.177Z,53.73
2019-05-02T05:44:32.686Z,55.60
2019-05-02T05:47:17.692Z,56.05
2019-05-02T05:49:57.660Z,55.83
2019-05-02T05:52:42.295Z,55.28
2019-05-02T05:55:24.244Z,44.45
2019-05-02T05:58:12.271Z,44.20
2019-05-02T06:00:53.835Z,61.23
2019-05-02T06:03:29.083Z,67.53
2019-05-02T06:06:14.815Z,68.28
2019-05-02T06:08:54.194Z,69.17
2019-05-02T06:11:35.227Z,66.75
2019-05-02T06:14:20.030Z,68.40
2019-05-02T06:16:58.731Z,68.78
2019-05-02T06:19:39.388Z,69.12
2019-05-02T06:22:24.329Z,68.37
2019-05-02T06:25:02.957Z,69.80
2019-05-02T06:27:44.133Z,70.90
2019-05-02T06:30:27.118Z,68.80
2019-05-02T06:36:00.908Z,69.72
2019-05-02T06:38:39.271Z,73.05
2019-05-02T06:44:01.779Z,69.50
2019-05-02T06:46:42.226Z,71.10
2019-05-02T06:49:24.877Z,70.67
2019-05-02T06:52:05.986Z,70.50
2019-05-02T06:54:47.079Z,72.53
2019-05-02T06:57:28.336Z,69.58
2019-05-02T07:00:09.156Z,69.85
2019-05-02T07:02:49.455Z,68.28
2019-05-02T07:05:30.088Z,69.60
2019-05-02T07:08:11.978Z,73.50
2019-05-02T07:10:56.030Z,73.12
2019-05-02T07:13:36.204Z,70.50
2019-05-02T07:22:21.903Z,69.07
2019-05-02T07:25:06.873Z,72.42
2019-05-02T07:27:44.759Z,71.82
2019-05-02T07:30:25.403Z,71.95
2019-05-02T07:33:06.341Z,70.20
2019-05-02T07:35:47.464Z,72.30
2019-05-02T07:41:07.107Z,71.90
2019-05-02T07:46:51.221Z,72.67
2019-05-02T07:49:26.805Z,72.42
2019-05-02T07:52:07.380Z,70.70
2019-05-02T08:22:34.935Z,71.12
2019-05-02T08:39:25.932Z,71.92
2019-05-02T08:42:04.649Z,66.80
2019-05-02T08:44:51.192Z,70.67
2019-05-02T08:47:28.543Z,70.97
2019-05-02T08:50:10.516Z,69.12
2019-05-02T08:52:51.567Z,69.35
2019-05-02T08:55:32.142Z,72.78
2019-05-02T08:58:14.910Z,71.97
2019-05-02T09:00:55.615Z,71.67
2019-05-02T09:03:54.729Z,71.90
2019-05-02T09:06:22.524Z,71.42
2019-05-02T09:09:01.175Z,68.47
2019-05-02T09:11:43.886Z,67.50
2019-05-02T09:14:24.310Z,70.75
2019-05-02T09:17:11.958Z,70.65
2019-05-02T09:19:59.459Z,72.65
2019-05-02T09:22:29.963Z,71.87
2019-05-02T09:25:12.490Z,70.45
2019-05-02T09:27:52.838Z,69.90
2019-05-02T09:30:33.421Z,68.65
2019-05-02T09:33:14.622Z,71.02
2019-05-02T09:35:55.348Z,66.77
2019-05-02T09:38:35.660Z,66.92
2019-05-02T09:41:19.336Z,62.78
2019-05-02T09:43:58.639Z,58.73
2019-05-02T09:46:39.712Z,58.10
2019-05-02T09:49:22.057Z,60.15
2019-05-02T09:52:03.474Z,64.75
2019-05-02T09:54:46.156Z,65.10
2019-05-02T09:57:26.914Z,64.85
2019-05-02T10:11:32.296Z,58.78
2019-05-02T10:14:12.941Z,57.67
2019-05-02T10:16:57.654Z,54.63
2019-05-02T10:19:43.016Z,51.80
2019-05-02T10:22:19.019Z,54.90
2019-05-02T10:24:59.454Z,51.23
2019-05-02T10:27:46.029Z,48.25
2019-05-02T10:30:24.694Z,52.90
2019-05-02T10:33:09.386Z,51.40
2019-05-02T10:35:52.405Z,46.55
2019-05-02T10:38:32.919Z,43.50
2019-05-02T10:41:13.895Z,44.18
2019-05-02T10:43:57.707Z,45.75
2019-05-02T10:49:42.887Z,46.75
2019-05-02T10:52:29.624Z,41.98
2019-05-02T10:55:06.679Z,44.18
2019-05-02T10:57:47.600Z,46.48
2019-05-02T11:00:33.138Z,43.02
2019-05-02T11:03:18.775Z,39.45
2019-05-02T11:06:05.515Z,39.55
2019-05-02T11:08:45.945Z,41.00
2019-05-02T11:11:26.424Z,40.58
2019-05-02T11:17:26.372Z,35.58
2019-05-02T11:20:09.733Z,36.75
2019-05-02T11:22:52.634Z,39.42
2019-05-02T11:25:33.221Z,35.00
2019-05-02T11:28:14.147Z,37.55
2019-05-02T11:33:41.918Z,35.28
2019-05-02T11:39:17.113Z,34.15
2019-05-02T11:44:41.843Z,31.02
2019-05-02T11:47:26.458Z,31.80
2019-05-02T11:50:04.482Z,34.18
2019-05-02T11:55:43.731Z,28.50
2019-05-02T12:01:12.671Z,26.70
2019-05-02T12:09:35.423Z,30.40
2019-05-02T12:26:22.289Z,26.77
2019-05-02T12:29:03.263Z,25.70
2019-05-02T12:31:47.202Z,24.02
2019-05-02T12:34:26.619Z,23.40
2019-05-02T12:37:07.388Z,24.27
2019-05-02T12:39:47.763Z,27.30
2019-05-02T12:42:28.605Z,24.02
2019-05-02T12:45:12.167Z,21.15
2019-05-02T12:47:52.867Z,19.95
2019-05-02T12:50:33.392Z,19.23
2019-05-02T12:53:13.863Z,18.75
2019-05-02T12:55:54.767Z,19.40
2019-05-02T12:58:35.094Z,18.05
2019-05-02T13:01:15.700Z,14.93
2019-05-02T13:04:02.864Z,19.95
2019-05-02T13:06:45.195Z,22.13
2019-05-02T13:09:25.791Z,18.60
2019-05-02T13:12:13.300Z,22.07
2019-05-02T13:14:53.814Z,23.02
2019-05-02T13:17:37.186Z,23.18
2019-05-02T13:20:18.871Z,23.05
2019-05-02T13:23:18.435Z,23.57
2019-05-02T13:25:59.663Z,24.43
2019-05-02T13:28:42.336Z,24.98
2019-05-02T13:31:47.592Z,24.75
2019-05-02T13:34:48.640Z,23.10
2019-05-02T13:37:31.802Z,25.00
2019-05-02T13:40:18.064Z,24.23
2019-05-02T13:42:59.083Z,26.33
2019-05-02T13:45:58.490Z,25.75
2019-05-02T13:48:39.087Z,23.67
2019-05-02T13:51:22.204Z,23.80
2019-05-02T13:54:02.904Z,24.25
2019-05-02T13:56:52.395Z,23.70
2019-05-02T14:02:19.541Z,23.07
2019-05-02T14:05:02.296Z,24.05
2019-05-02T14:07:48.400Z,25.10
2019-05-02T14:10:39.438Z,26.20
2019-05-02T14:13:15.054Z,24.47
2019-05-02T14:15:55.770Z,23.57
2019-05-02T14:18:36.603Z,23.87
2019-05-02T14:21:17.263Z,24.00
2019-05-02T14:23:58.411Z,22.73
2019-05-02T14:26:39.331Z,23.77
2019-05-02T14:29:18.515Z,22.85
2019-05-02T14:35:26.385Z,20.40
2019-05-02T14:38:22.151Z,22.85
2019-05-02T14:41:13.350Z,18.65
2019-05-02T14:43:57.251Z,20.48
2019-05-02T14:46:39.622Z,20.60
2019-05-02T14:49:23.922Z,20.27
2019-05-02T14:52:07.060Z,19.32
2019-05-02T14:54:48.004Z,14.60
2019-05-02T14:57:28.387Z,14.15
2019-05-02T15:00:09.048Z,14.58
2019-05-02T15:02:51.756Z,14.80
2019-05-02T15:05:32.684Z,14.40
2019-05-02T15:08:13.287Z,12.07
2019-05-02T15:10:56.590Z,11.65
2019-05-02T15:13:40.921Z,10.95
2019-05-02T15:21:52.541Z,10.82
2019-05-02T15:24:33.268Z,10.50
2019-05-02T15:30:07.141Z,10.13
2019-05-02T15:32:52.144Z,10.65
2019-05-02T15:35:47.106Z,9.45
2019-05-02T15:38:32.363Z,8.95
2019-05-02T15:41:15.369Z,9.08
2019-05-02T15:43:59.270Z,8.40
2019-05-02T15:46:42.441Z,7.20
2019-05-02T15:49:22.776Z,8.23
2019-05-02T15:52:03.648Z,12.50
2019-05-02T15:54:44.351Z,13.30
2019-05-02T15:57:25.140Z,14.35
2019-05-02T16:00:06.575Z,13.08
2019-05-02T16:02:47.647Z,12.75
2019-05-02T16:05:28.462Z,12.00
2019-05-02T16:08:09.243Z,12.28
2019-05-02T16:13:47.024Z,14.07
2019-05-02T16:16:26.219Z,13.50
2019-05-02T16:19:07.193Z,13.90
2019-05-02T16:24:56.795Z,14.95
2019-05-02T16:30:47.618Z,16.12
2019-05-02T16:33:27.968Z,17.25
2019-05-02T16:36:08.662Z,18.48
2019-05-02T16:38:49.338Z,19.82
2019-05-02T16:41:32.414Z,19.90
2019-05-02T16:44:13.342Z,20.72
2019-05-02T16:46:54.360Z,19.73
2019-05-02T16:49:34.719Z,18.37
2019-05-02T16:52:16.139Z,18.15
2019-05-02T16:54:57.027Z,17.65
2019-05-02T16:57:37.586Z,16.32
2019-05-02T17:00:22.899Z,16.90
2019-05-02T17:03:03.817Z,18.73
2019-05-02T17:05:49.184Z,16.75
2019-05-02T17:08:49.452Z,18.62
2019-05-02T17:11:35.722Z,17.32
2019-05-02T17:14:14.848Z,16.02
2019-05-02T17:16:55.950Z,17.00
2019-05-02T17:19:36.950Z,16.77
2019-05-02T17:22:21.881Z,15.38
2019-05-02T17:25:02.442Z,15.90
2019-05-02T17:27:42.391Z,15.65
2019-05-02T17:30:23.731Z,15.83
2019-05-02T17:33:07.212Z,15.25
2019-05-02T17:35:51.303Z,15.72
2019-05-02T17:38:29.390Z,13.30
2019-05-02T17:41:11.728Z,15.08
2019-05-02T17:43:52.581Z,14.20
2019-05-02T17:46:33.602Z,11.88
2019-05-02T17:49:14.386Z,13.10
2019-05-02T17:52:19.753Z,10.75
2019-05-02T17:54:57.357Z,9.78
2019-05-02T17:57:39.231Z,8.73
2019-05-02T18:00:23.014Z,7.60
2019-05-02T18:05:53.406Z,7.53
2019-05-02T18:08:34.320Z,7.80
2019-05-02T18:11:15.423Z,6.53
2019-05-02T18:13:56.070Z,7.22
2019-05-02T18:16:39.200Z,6.42
2019-05-02T18:22:23.234Z,6.30
2019-05-02T18:27:46.818Z,6.22
2019-05-02T18:30:27.369Z,5.85
2019-05-02T18:33:08.311Z,6.33
2019-05-02T18:35:49.648Z,5.85
2019-05-02T18:38:29.892Z,6.17
2019-05-02T18:41:12.115Z,6.37
2019-05-02T18:43:52.879Z,5.70
2019-05-02T18:46:36.814Z,5.90
2019-05-02T18:49:17.126Z,6.50
2019-05-02T18:51:58.791Z,6.40
2019-05-02T18:54:43.914Z,6.28
2019-05-02T18:57:25.982Z,6.90
2019-05-02T19:00:04.587Z,7.00
2019-05-02T19:02:45.633Z,6.40
2019-05-02T19:05:26.697Z,7.12
2019-05-02T19:08:07.926Z,7.92
2019-05-02T19:11:02.555Z,8.38
2019-05-02T19:13:32.760Z,8.35
2019-05-02T19:16:13.904Z,9.03
2019-05-02T19:18:57.373Z,9.50
2019-05-02T19:21:39.496Z,10.45
2019-05-02T19:24:20.043Z,10.32
2019-05-02T19:27:02.178Z,12.28
2019-05-02T19:29:48.196Z,11.45
2019-05-02T19:32:28.372Z,12.58
2019-05-02T19:35:08.842Z,12.90
2019-05-02T19:43:32.497Z,9.88
2019-05-02T19:46:16.834Z,9.48
2019-05-02T19:51:44.732Z,7.70
2019-05-02T19:54:26.279Z,7.65
2019-05-02T19:59:52.383Z,5.72
2019-05-02T20:02:32.761Z,5.03
2019-05-02T20:19:04.011Z,4.22
2019-05-02T20:33:14.147Z,3.50
2019-05-02T20:38:36.678Z,3.95
2019-05-02T20:41:17.335Z,3.83
2019-05-02T20:43:58.019Z,3.75
2019-05-02T20:46:38.493Z,3.22
2019-05-02T20:49:19.163Z,3.17
2019-05-02T20:51:59.614Z,3.80
2019-05-02T20:54:42.675Z,3.35
2019-05-02T20:57:23.303Z,3.47
2019-05-02T21:00:03.931Z,4.12
2019-05-02T21:02:45.130Z,3.98
2019-05-02T21:05:28.285Z,3.00
2019-05-02T21:11:17.534Z,2.65
2019-05-02T21:13:58.252Z,3.22
2019-05-02T21:16:39.195Z,3.58
2019-05-02T21:19:21.734Z,3.90
2019-05-02T21:22:02.924Z,3.87
2019-05-02T21:24:43.774Z,4.67
2019-05-02T21:27:24.107Z,4.65
2019-05-02T21:30:04.747Z,4.37
2019-05-02T21:32:45.611Z,4.35
2019-05-02T21:35:26.158Z,4.00
2019-05-02T21:38:07.027Z,4.35
2019-05-02T21:40:47.763Z,4.00
2019-05-02T21:43:28.292Z,4.85
2019-05-02T21:46:08.787Z,5.00
2019-05-02T21:48:49.502Z,4.70
2019-05-02T21:51:51.658Z,4.72
2019-05-02T21:57:34.427Z,4.80
2019-05-02T22:00:17.699Z,4.12
2019-05-02T22:02:58.714Z,4.15
2019-05-02T22:05:39.263Z,4.33
2019-05-02T22:08:21.681Z,3.95
2019-05-02T22:11:02.539Z,4.30
2019-05-02T22:13:43.359Z,4.05
2019-05-02T22:16:24.479Z,4.28
2019-05-02T22:21:54.455Z,4.00
2019-05-02T22:24:35.174Z,3.87
2019-05-02T22:27:15.954Z,3.90
2019-05-02T22:29:56.415Z,3.70
2019-05-02T22:35:26.203Z,3.22
2019-05-02T22:41:14.699Z,3.33
2019-05-02T22:43:55.366Z,3.90
2019-05-02T22:46:43.680Z,3.52
2019-05-02T22:49:25.944Z,3.70
2019-05-02T22:52:06.663Z,3.37
2019-05-02T22:54:46.971Z,3.72
2019-05-02T22:57:27.771Z,3.52
2019-05-02T23:00:08.567Z,3.60
2019-05-02T23:02:49.702Z,4.00
2019-05-02T23:05:30.123Z,4.20
2019-05-02T23:08:12.455Z,3.70
2019-05-02T23:10:53.587Z,3.02
2019-05-02T23:16:16.476Z,3.90
2019-05-02T23:18:57.412Z,4.12
2019-05-02T23:21:37.935Z,5.28
2019-05-02T23:30:22.526Z,5.83
2019-05-02T23:35:45.051Z,5.25
2019-05-02T23:41:12.760Z,5.80
2019-05-02T23:46:42.386Z,6.25
2019-05-02T23:54:58.819Z,8.13
2019-05-02T23:57:41.887Z,8.10
